sensor_id;sensor_type;location;lat;lon;timestamp;P1;durP1;ratioP1;P2;durP2;ratioP2
67164;SDS011;54093;50.014;19.984;2023-02-28T00:03:30;5.18;;;4.68;;
67164;SDS011;54093;50.014;19.984;2023-02-28T00:12:51;8.00;;;4.93;;
67164;SDS011;54093;50.014;19.984;2023-02-28T00:22:13;12.30;;;5.75;;
67164;SDS011;54093;50.014;19.984;2023-02-28T00:31:34;10.00;;;6.38;;
67164;SDS011;54093;50.014;19.984;2023-02-28T00:40:55;4.72;;;3.88;;
67164;SDS011;54093;50.014;19.984;2023-02-28T00:50:17;10.85;;;6.60;;
67164;SDS011;54093;50.014;19.984;2023-02-28T00:59:39;5.53;;;4.28;;
67164;SDS011;54093;50.014;19.984;2023-02-28T01:09:00;7.55;;;5.18;;
67164;SDS011;54093;50.014;19.984;2023-02-28T01:18:21;8.15;;;5.20;;
67164;SDS011;54093;50.014;19.984;2023-02-28T01:27:43;4.18;;;3.65;;
67164;SDS011;54093;50.014;19.984;2023-02-28T01:37:04;12.45;;;5.38;;
67164;SDS011;54093;50.014;19.984;2023-02-28T01:46:25;9.25;;;5.18;;
67164;SDS011;54093;50.014;19.984;2023-02-28T01:55:47;8.40;;;5.32;;
67164;SDS011;54093;50.014;19.984;2023-02-28T02:05:19;5.13;;;4.38;;
67164;SDS011;54093;50.014;19.984;2023-02-28T02:15:32;6.80;;;5.07;;
67164;SDS011;54093;50.014;19.984;2023-02-28T02:24:44;5.45;;;4.95;;
67164;SDS011;54093;50.014;19.984;2023-02-28T02:34:26;8.27;;;6.45;;
67164;SDS011;54093;50.014;19.984;2023-02-28T02:53:27;7.00;;;5.23;;
67164;SDS011;54093;50.014;19.984;2023-02-28T03:03:02;11.30;;;7.55;;
67164;SDS011;54093;50.014;19.984;2023-02-28T03:12:27;9.68;;;4.40;;
67164;SDS011;54093;50.014;19.984;2023-02-28T03:22:15;11.63;;;5.40;;
67164;SDS011;54093;50.014;19.984;2023-02-28T03:31:41;6.38;;;5.35;;
67164;SDS011;54093;50.014;19.984;2023-02-28T03:41:10;11.32;;;8.00;;
67164;SDS011;54093;50.014;19.984;2023-02-28T03:50:41;6.43;;;4.75;;
67164;SDS011;54093;50.014;19.984;2023-02-28T04:09:46;8.88;;;5.20;;
67164;SDS011;54093;50.014;19.984;2023-02-28T04:19:08;6.28;;;5.25;;
67164;SDS011;54093;50.014;19.984;2023-02-28T04:28:31;12.20;;;7.28;;
67164;SDS011;54093;50.014;19.984;2023-02-28T04:37:52;10.73;;;7.05;;
67164;SDS011;54093;50.014;19.984;2023-02-28T04:47:13;4.30;;;3.95;;
67164;SDS011;54093;50.014;19.984;2023-02-28T04:56:34;5.32;;;4.55;;
67164;SDS011;54093;50.014;19.984;2023-02-28T05:05:56;11.13;;;7.38;;
67164;SDS011;54093;50.014;19.984;2023-02-28T05:15:17;12.75;;;6.40;;
67164;SDS011;54093;50.014;19.984;2023-02-28T05:24:38;6.45;;;5.50;;
67164;SDS011;54093;50.014;19.984;2023-02-28T05:33:59;9.75;;;5.82;;
67164;SDS011;54093;50.014;19.984;2023-02-28T05:43:21;8.13;;;6.20;;
67164;SDS011;54093;50.014;19.984;2023-02-28T05:52:42;10.93;;;7.18;;
67164;SDS011;54093;50.014;19.984;2023-02-28T06:02:02;9.85;;;5.82;;
67164;SDS011;54093;50.014;19.984;2023-02-28T06:11:26;4.70;;;4.13;;
67164;SDS011;54093;50.014;19.984;2023-02-28T06:20:54;8.10;;;5.18;;
67164;SDS011;54093;50.014;19.984;2023-02-28T06:30:16;6.65;;;4.72;;
67164;SDS011;54093;50.014;19.984;2023-02-28T06:39:37;7.07;;;6.32;;
67164;SDS011;54093;50.014;19.984;2023-02-28T06:48:58;5.97;;;5.53;;
67164;SDS011;54093;50.014;19.984;2023-02-28T06:58:19;6.40;;;5.80;;
67164;SDS011;54093;50.014;19.984;2023-02-28T07:07:40;8.02;;;5.88;;
67164;SDS011;54093;50.014;19.984;2023-02-28T07:17:04;14.90;;;7.35;;
67164;SDS011;54093;50.014;19.984;2023-02-28T07:26:27;11.93;;;9.15;;
67164;SDS011;54093;50.014;19.984;2023-02-28T07:35:48;7.30;;;6.57;;
67164;SDS011;54093;50.014;19.984;2023-02-28T07:45:10;8.10;;;7.10;;
67164;SDS011;54093;50.014;19.984;2023-02-28T07:54:32;13.07;;;7.43;;
67164;SDS011;54093;50.014;19.984;2023-02-28T08:03:53;19.77;;;9.25;;
67164;SDS011;54093;50.014;19.984;2023-02-28T08:13:15;17.77;;;8.23;;
67164;SDS011;54093;50.014;19.984;2023-02-28T08:22:36;8.85;;;7.00;;
67164;SDS011;54093;50.014;19.984;2023-02-28T08:31:57;9.93;;;5.30;;
67164;SDS011;54093;50.014;19.984;2023-02-28T08:41:19;6.72;;;5.50;;
67164;SDS011;54093;50.014;19.984;2023-02-28T08:50:40;5.30;;;4.80;;
67164;SDS011;54093;50.014;19.984;2023-02-28T09:00:01;4.72;;;4.28;;
67164;SDS011;54093;50.014;19.984;2023-02-28T09:09:24;3.80;;;3.15;;
67164;SDS011;54093;50.014;19.984;2023-02-28T09:18:46;4.28;;;3.28;;
67164;SDS011;54093;50.014;19.984;2023-02-28T09:28:07;6.55;;;3.78;;
67164;SDS011;54093;50.014;19.984;2023-02-28T09:37:28;3.50;;;3.28;;
67164;SDS011;54093;50.014;19.984;2023-02-28T09:46:51;3.40;;;3.13;;
67164;SDS011;54093;50.014;19.984;2023-02-28T09:56:24;4.18;;;3.63;;
67164;SDS011;54093;50.014;19.984;2023-02-28T10:15:30;5.57;;;5.18;;
67164;SDS011;54093;50.014;19.984;2023-02-28T10:24:53;3.55;;;3.22;;
67164;SDS011;54093;50.014;19.984;2023-02-28T10:34:17;3.22;;;2.92;;
67164;SDS011;54093;50.014;19.984;2023-02-28T10:43:38;3.60;;;3.30;;
67164;SDS011;54093;50.014;19.984;2023-02-28T10:53:13;9.10;;;4.53;;
67164;SDS011;54093;50.014;19.984;2023-02-28T11:02:42;4.90;;;4.22;;
67164;SDS011;54093;50.014;19.984;2023-02-28T11:12:08;4.43;;;3.88;;
67164;SDS011;54093;50.014;19.984;2023-02-28T11:21:47;5.20;;;3.50;;
67164;SDS011;54093;50.014;19.984;2023-02-28T11:40:45;4.07;;;3.22;;
67164;SDS011;54093;50.014;19.984;2023-02-28T11:50:34;3.22;;;2.92;;
67164;SDS011;54093;50.014;19.984;2023-02-28T12:00:15;3.20;;;2.97;;
67164;SDS011;54093;50.014;19.984;2023-02-28T12:29:47;3.33;;;3.13;;
67164;SDS011;54093;50.014;19.984;2023-02-28T12:48:58;3.60;;;3.40;;
67164;SDS011;54093;50.014;19.984;2023-02-28T12:58:34;4.03;;;3.70;;
67164;SDS011;54093;50.014;19.984;2023-02-28T13:17:27;8.07;;;4.28;;
67164;SDS011;54093;50.014;19.984;2023-02-28T13:36:30;4.18;;;3.78;;
67164;SDS011;54093;50.014;19.984;2023-02-28T13:46:03;3.47;;;3.17;;
67164;SDS011;54093;50.014;19.984;2023-02-28T13:55:42;4.32;;;3.22;;
67164;SDS011;54093;50.014;19.984;2023-02-28T14:05:22;3.83;;;3.40;;
67164;SDS011;54093;50.014;19.984;2023-02-28T14:24:23;7.40;;;4.97;;
67164;SDS011;54093;50.014;19.984;2023-02-28T14:43:32;4.00;;;3.70;;
67164;SDS011;54093;50.014;19.984;2023-02-28T14:52:53;4.45;;;4.10;;
67164;SDS011;54093;50.014;19.984;2023-02-28T15:02:23;4.85;;;4.03;;
67164;SDS011;54093;50.014;19.984;2023-02-28T15:11:47;4.68;;;4.28;;
67164;SDS011;54093;50.014;19.984;2023-02-28T15:21:44;5.10;;;4.50;;
67164;SDS011;54093;50.014;19.984;2023-02-28T15:31:04;5.30;;;4.88;;
67164;SDS011;54093;50.014;19.984;2023-02-28T15:40:50;4.47;;;4.15;;
67164;SDS011;54093;50.014;19.984;2023-02-28T15:50:15;4.10;;;3.80;;
67164;SDS011;54093;50.014;19.984;2023-02-28T15:59:37;7.75;;;4.60;;
67164;SDS011;54093;50.014;19.984;2023-02-28T16:08:58;6.07;;;4.90;;
67164;SDS011;54093;50.014;19.984;2023-02-28T16:18:19;5.28;;;4.88;;
67164;SDS011;54093;50.014;19.984;2023-02-28T16:27:40;6.88;;;4.88;;
67164;SDS011;54093;50.014;19.984;2023-02-28T16:37:04;6.47;;;4.68;;
67164;SDS011;54093;50.014;19.984;2023-02-28T16:46:31;4.70;;;4.13;;
67164;SDS011;54093;50.014;19.984;2023-02-28T16:55:54;6.10;;;4.53;;
67164;SDS011;54093;50.014;19.984;2023-02-28T17:05:15;6.13;;;4.57;;
67164;SDS011;54093;50.014;19.984;2023-02-28T17:14:38;10.85;;;5.20;;
67164;SDS011;54093;50.014;19.984;2023-02-28T17:23:59;4.50;;;4.20;;
67164;SDS011;54093;50.014;19.984;2023-02-28T17:33:20;4.80;;;4.25;;
67164;SDS011;54093;50.014;19.984;2023-02-28T17:42:41;4.30;;;3.90;;
67164;SDS011;54093;50.014;19.984;2023-02-28T17:52:03;5.50;;;5.00;;
67164;SDS011;54093;50.014;19.984;2023-02-28T18:01:24;5.43;;;4.90;;
67164;SDS011;54093;50.014;19.984;2023-02-28T18:10:46;4.88;;;4.00;;
67164;SDS011;54093;50.014;19.984;2023-02-28T18:20:08;8.57;;;4.97;;
67164;SDS011;54093;50.014;19.984;2023-02-28T18:29:31;7.68;;;4.47;;
67164;SDS011;54093;50.014;19.984;2023-02-28T18:38:53;5.53;;;4.95;;
67164;SDS011;54093;50.014;19.984;2023-02-28T18:48:14;6.38;;;5.78;;
67164;SDS011;54093;50.014;19.984;2023-02-28T18:57:36;6.70;;;4.55;;
67164;SDS011;54093;50.014;19.984;2023-02-28T19:06:57;7.47;;;6.25;;
67164;SDS011;54093;50.014;19.984;2023-02-28T19:16:19;13.18;;;5.45;;
67164;SDS011;54093;50.014;19.984;2023-02-28T19:25:41;9.15;;;6.90;;
67164;SDS011;54093;50.014;19.984;2023-02-28T19:35:02;8.68;;;7.50;;
67164;SDS011;54093;50.014;19.984;2023-02-28T19:44:24;15.82;;;7.95;;
67164;SDS011;54093;50.014;19.984;2023-02-28T19:53:45;19.08;;;7.82;;
67164;SDS011;54093;50.014;19.984;2023-02-28T20:03:06;11.38;;;7.85;;
67164;SDS011;54093;50.014;19.984;2023-02-28T20:12:27;14.13;;;8.05;;
67164;SDS011;54093;50.014;19.984;2023-02-28T20:21:48;18.77;;;7.68;;
67164;SDS011;54093;50.014;19.984;2023-02-28T20:31:15;18.05;;;10.38;;
67164;SDS011;54093;50.014;19.984;2023-02-28T20:40:38;22.02;;;11.07;;
67164;SDS011;54093;50.014;19.984;2023-02-28T20:49:59;15.63;;;9.57;;
67164;SDS011;54093;50.014;19.984;2023-02-28T20:59:20;15.00;;;7.78;;
67164;SDS011;54093;50.014;19.984;2023-02-28T21:08:42;12.60;;;9.15;;
67164;SDS011;54093;50.014;19.984;2023-02-28T21:18:03;12.57;;;8.63;;
67164;SDS011;54093;50.014;19.984;2023-02-28T21:27:24;8.70;;;7.50;;
67164;SDS011;54093;50.014;19.984;2023-02-28T21:36:45;12.73;;;8.70;;
67164;SDS011;54093;50.014;19.984;2023-02-28T21:46:07;10.55;;;8.48;;
67164;SDS011;54093;50.014;19.984;2023-02-28T21:55:32;10.05;;;7.13;;
67164;SDS011;54093;50.014;19.984;2023-02-28T22:04:54;10.57;;;6.97;;
67164;SDS011;54093;50.014;19.984;2023-02-28T22:14:15;10.32;;;7.57;;
67164;SDS011;54093;50.014;19.984;2023-02-28T22:23:37;14.85;;;7.68;;
67164;SDS011;54093;50.014;19.984;2023-02-28T22:32:59;13.02;;;8.30;;
67164;SDS011;54093;50.014;19.984;2023-02-28T22:42:20;15.55;;;7.65;;
67164;SDS011;54093;50.014;19.984;2023-02-28T22:51:41;11.65;;;8.40;;
67164;SDS011;54093;50.014;19.984;2023-02-28T23:01:20;10.45;;;8.68;;
67164;SDS011;54093;50.014;19.984;2023-02-28T23:10:43;26.90;;;11.27;;
67164;SDS011;54093;50.014;19.984;2023-02-28T23:20:04;10.52;;;8.27;;
67164;SDS011;54093;50.014;19.984;2023-02-28T23:29:26;11.07;;;7.15;;
67164;SDS011;54093;50.014;19.984;2023-02-28T23:38:48;9.68;;;7.65;;
67164;SDS011;54093;50.014;19.984;2023-02-28T23:48:10;17.35;;;7.75;;
67164;SDS011;54093;50.014;19.984;2023-02-28T23:57:33;21.10;;;9.75;;
